createdAt,value
2023-02-14T00:01:33.202Z,6.40
2023-02-14T00:04:01.714Z,6.50
2023-02-14T00:06:35.247Z,6.50
2023-02-14T00:09:03.643Z,6.60
2023-02-14T00:11:31.984Z,6.70
2023-02-14T00:14:17.815Z,6.60
2023-02-14T00:16:46.113Z,6.60
2023-02-14T00:19:15.439Z,6.50
2023-02-14T00:21:45.175Z,6.50
2023-02-14T00:24:14.665Z,6.40
2023-02-14T00:26:43.241Z,6.40
2023-02-14T00:29:12.706Z,6.50
2023-02-14T00:31:41.252Z,6.50
2023-02-14T00:34:10.067Z,6.50
2023-02-14T00:36:38.530Z,6.50
2023-02-14T00:39:09.111Z,6.50
2023-02-14T00:41:37.438Z,6.50
2023-02-14T00:44:06.180Z,6.50
2023-02-14T00:46:34.558Z,6.60
2023-02-14T00:49:02.887Z,6.60
2023-02-14T00:51:31.763Z,6.60
2023-02-14T00:54:00.053Z,6.60
2023-02-14T00:56:29.856Z,6.70
2023-02-14T00:58:58.228Z,6.70
2023-02-14T01:01:26.683Z,6.70
2023-02-14T01:03:55.071Z,6.70
2023-02-14T01:06:23.356Z,6.70
2023-02-14T01:08:51.646Z,6.70
2023-02-14T01:11:21.466Z,6.70
2023-02-14T01:13:51.531Z,6.60
2023-02-14T01:16:21.954Z,6.70
2023-02-14T01:18:50.281Z,6.70
2023-02-14T01:21:20.553Z,6.70
2023-02-14T01:23:51.023Z,6.70
2023-02-14T01:26:19.768Z,6.70
2023-02-14T01:28:48.235Z,6.70
2023-02-14T01:31:19.821Z,6.70
2023-02-14T01:33:48.910Z,6.80
2023-02-14T01:36:25.251Z,6.80
2023-02-14T01:38:54.764Z,6.80
2023-02-14T01:41:23.192Z,6.70
2023-02-14T01:43:54.294Z,6.70
2023-02-14T01:46:24.111Z,6.70
2023-02-14T01:48:52.499Z,6.70
2023-02-14T01:51:20.866Z,6.70
2023-02-14T01:53:49.253Z,6.70
2023-02-14T01:56:21.372Z,6.70
2023-02-14T01:58:49.696Z,6.70
2023-02-14T02:01:28.606Z,6.70
2023-02-14T02:04:00.010Z,6.70
2023-02-14T02:06:30.127Z,6.70
2023-02-14T02:09:08.228Z,6.70
2023-02-14T02:11:36.588Z,6.70
2023-02-14T02:14:05.092Z,6.70
2023-02-14T02:16:49.195Z,6.70
2023-02-14T02:20:10.683Z,6.60
2023-02-14T02:23:13.647Z,6.60
2023-02-14T02:26:11.838Z,6.60
2023-02-14T02:29:22.618Z,6.70
2023-02-14T02:32:20.238Z,6.70
2023-02-14T02:35:19.329Z,6.60
2023-02-14T02:37:57.186Z,6.50
2023-02-14T02:40:33.835Z,6.50
2023-02-14T02:43:10.302Z,6.50
2023-02-14T02:46:03.252Z,6.50
2023-02-14T02:48:38.054Z,6.60
2023-02-14T02:51:29.214Z,6.60
2023-02-14T02:54:00.296Z,6.60
2023-02-14T02:56:49.889Z,6.60
2023-02-14T02:59:21.650Z,6.50
2023-02-14T03:01:53.750Z,6.60
2023-02-14T03:04:39.608Z,6.60
2023-02-14T03:07:23.163Z,6.50
2023-02-14T03:09:53.808Z,6.50
2023-02-14T03:12:54.639Z,6.50
2023-02-14T03:15:27.352Z,6.40
2023-02-14T03:18:03.213Z,6.40
2023-02-14T03:20:37.688Z,6.50
2023-02-14T03:23:10.849Z,6.50
2023-02-14T03:25:43.924Z,6.40
2023-02-14T03:28:15.996Z,6.30
2023-02-14T03:30:50.494Z,6.30
2023-02-14T03:33:23.199Z,6.30
2023-02-14T03:35:55.947Z,6.30
2023-02-14T03:38:29.076Z,6.30
2023-02-14T03:41:00.042Z,6.40
2023-02-14T03:43:31.337Z,6.40
2023-02-14T03:46:05.730Z,6.40
2023-02-14T03:48:34.248Z,6.40
2023-02-14T03:51:02.774Z,6.40
2023-02-14T03:53:34.291Z,6.40
2023-02-14T03:56:04.944Z,6.40
2023-02-14T03:58:35.543Z,6.40
2023-02-14T04:01:09.684Z,6.40
2023-02-14T04:03:38.059Z,6.40
2023-02-14T04:06:07.001Z,6.40
2023-02-14T04:08:36.726Z,6.30
2023-02-14T04:11:05.422Z,6.20
2023-02-14T04:13:33.781Z,6.20
2023-02-14T04:16:02.090Z,6.20
2023-02-14T04:18:47.959Z,6.10
2023-02-14T04:21:16.312Z,6.10
2023-02-14T04:23:46.034Z,6.20
2023-02-14T04:26:14.943Z,6.20
2023-02-14T04:28:43.497Z,6.20
2023-02-14T04:31:11.987Z,6.20
2023-02-14T04:33:40.408Z,6.20
2023-02-14T04:36:09.218Z,6.20
2023-02-14T04:38:37.566Z,6.20
2023-02-14T04:41:07.325Z,6.20
2023-02-14T04:43:35.598Z,6.20
2023-02-14T04:46:03.889Z,6.20
2023-02-14T04:48:32.124Z,6.20
2023-02-14T04:51:00.623Z,6.20
2023-02-14T04:53:29.198Z,6.30
2023-02-14T04:55:57.382Z,6.30
2023-02-14T04:58:27.187Z,6.30
2023-02-14T05:00:55.618Z,6.30
2023-02-14T05:03:23.908Z,6.40
2023-02-14T05:05:52.484Z,6.40
2023-02-14T05:08:20.798Z,6.30
2023-02-14T05:10:49.391Z,6.30
2023-02-14T05:13:18.122Z,6.30
2023-02-14T05:15:47.803Z,6.30
2023-02-14T05:18:16.123Z,6.30
2023-02-14T05:20:44.566Z,6.30
2023-02-14T05:23:13.784Z,6.40
2023-02-14T05:25:42.214Z,6.40
2023-02-14T05:28:10.639Z,6.40
2023-02-14T05:30:39.426Z,6.30
2023-02-14T05:33:09.209Z,6.10
2023-02-14T05:35:37.495Z,6.10
2023-02-14T05:38:05.837Z,6.10
2023-02-14T05:40:34.169Z,6.10
2023-02-14T05:43:02.443Z,6.20
2023-02-14T05:45:31.011Z,6.20
2023-02-14T05:47:59.415Z,6.30
2023-02-14T05:50:29.337Z,6.30
2023-02-14T05:52:57.615Z,6.30
2023-02-14T05:55:26.252Z,6.30
2023-02-14T05:57:54.618Z,6.30
2023-02-14T06:00:24.881Z,6.30
2023-02-14T06:02:53.205Z,6.30
2023-02-14T06:05:21.496Z,6.30
2023-02-14T06:07:51.379Z,6.30
2023-02-14T06:10:20.125Z,6.20
2023-02-14T06:12:49.484Z,6.20
2023-02-14T06:15:17.971Z,6.10
2023-02-14T06:17:47.098Z,6.10
2023-02-14T06:20:15.534Z,6.00
2023-02-14T06:22:43.822Z,6.10
2023-02-14T06:25:13.587Z,6.10
2023-02-14T06:27:41.860Z,6.20
2023-02-14T06:30:12.104Z,6.20
2023-02-14T06:32:40.556Z,6.30
2023-02-14T06:35:09.469Z,6.30
2023-02-14T06:37:38.711Z,6.30
2023-02-14T06:40:09.050Z,6.30
2023-02-14T06:42:38.963Z,6.30
2023-02-14T06:45:08.852Z,6.30
2023-02-14T06:47:37.165Z,6.30
2023-02-14T06:50:06.367Z,6.20
2023-02-14T06:52:34.712Z,6.20
2023-02-14T06:55:03.227Z,6.30
2023-02-14T06:57:31.601Z,6.30
2023-02-14T07:00:01.292Z,6.30
2023-02-14T07:02:29.698Z,6.30
2023-02-14T07:04:58.032Z,6.30
2023-02-14T07:07:27.083Z,6.20
2023-02-14T07:09:55.349Z,6.20
2023-02-14T07:12:24.118Z,6.20
2023-02-14T07:14:52.510Z,6.20
2023-02-14T07:17:22.247Z,6.20
2023-02-14T07:19:50.619Z,6.30
2023-02-14T07:22:18.883Z,6.30
2023-02-14T07:24:47.220Z,6.40
2023-02-14T07:27:15.589Z,6.50
2023-02-14T07:29:43.873Z,6.50
2023-02-14T07:32:12.358Z,6.50
2023-02-14T07:34:42.117Z,6.50
2023-02-14T07:37:10.400Z,6.50
2023-02-14T07:39:38.768Z,6.50
2023-02-14T07:42:08.298Z,6.60
2023-02-14T07:44:38.918Z,6.60
2023-02-14T07:47:07.463Z,6.60
2023-02-14T07:49:36.001Z,6.50
2023-02-14T07:52:05.975Z,6.50
2023-02-14T07:54:34.322Z,6.50
2023-02-14T07:57:02.698Z,6.60
2023-02-14T07:59:31.061Z,6.60
2023-02-14T08:01:59.440Z,6.70
2023-02-14T08:04:27.822Z,6.60
2023-02-14T08:06:56.096Z,6.60
2023-02-14T08:09:25.784Z,6.70
2023-02-14T08:12:11.774Z,6.80
2023-02-14T08:14:40.309Z,6.80
2023-02-14T08:17:10.070Z,6.90
2023-02-14T08:19:38.410Z,6.90
2023-02-14T08:22:06.682Z,7.00
2023-02-14T08:24:36.469Z,7.00
2023-02-14T08:27:04.856Z,7.00
2023-02-14T08:29:33.145Z,7.10
2023-02-14T08:32:01.608Z,7.10
2023-02-14T08:34:29.999Z,7.20
2023-02-14T08:36:58.375Z,7.20
2023-02-14T08:39:26.756Z,7.20
2023-02-14T08:41:56.554Z,7.20
2023-02-14T08:44:25.050Z,7.30
2023-02-14T08:46:53.528Z,7.30
2023-02-14T08:49:21.932Z,7.40
2023-02-14T08:51:50.426Z,7.40
2023-02-14T08:54:18.957Z,7.40
2023-02-14T08:56:47.441Z,7.40
2023-02-14T08:59:17.460Z,7.40
2023-02-14T09:01:45.748Z,7.40
2023-02-14T09:04:14.312Z,7.40
2023-02-14T09:06:42.827Z,7.40
2023-02-14T09:09:11.221Z,7.50
2023-02-14T09:11:39.595Z,7.50
2023-02-14T09:14:07.925Z,7.60
2023-02-14T09:16:37.734Z,7.70
2023-02-14T09:19:06.117Z,7.70
2023-02-14T09:21:35.117Z,7.80
2023-02-14T09:24:03.453Z,7.80
2023-02-14T09:26:33.830Z,7.80
2023-02-14T09:29:02.143Z,7.80
2023-02-14T09:31:30.742Z,7.90
2023-02-14T09:34:17.784Z,7.90
2023-02-14T09:36:46.104Z,7.90
2023-02-14T09:39:14.348Z,8.00
2023-02-14T09:42:35.385Z,8.00
2023-02-14T09:45:06.256Z,8.10
2023-02-14T09:47:42.137Z,8.10
2023-02-14T09:50:21.051Z,8.20
2023-02-14T09:52:51.210Z,8.30
2023-02-14T09:55:20.096Z,8.30
2023-02-14T09:58:04.744Z,8.30
2023-02-14T10:00:38.089Z,8.40
2023-02-14T10:03:33.601Z,8.40
2023-02-14T10:06:06.915Z,8.40
2023-02-14T10:08:48.227Z,8.40
2023-02-14T10:11:20.275Z,8.30
2023-02-14T10:13:51.469Z,8.40
2023-02-14T10:16:25.762Z,8.40
2023-02-14T10:18:58.886Z,8.40
2023-02-14T10:21:32.284Z,8.40
2023-02-14T10:24:05.246Z,8.40
2023-02-14T10:26:38.144Z,8.40
2023-02-14T10:29:08.844Z,8.40
2023-02-14T10:31:40.702Z,8.50
2023-02-14T10:34:14.771Z,8.50
2023-02-14T10:36:51.633Z,8.60
2023-02-14T10:39:36.140Z,8.50
2023-02-14T10:42:09.683Z,8.50
2023-02-14T10:44:45.953Z,8.50
2023-02-14T10:47:28.191Z,8.50
2023-02-14T10:50:00.372Z,8.60
2023-02-14T10:52:35.440Z,8.60
2023-02-14T10:55:20.192Z,8.70
2023-02-14T10:57:58.596Z,8.70
2023-02-14T11:00:29.357Z,8.70
2023-02-14T11:02:58.947Z,8.70
2023-02-14T11:05:29.622Z,8.70
2023-02-14T11:08:00.003Z,8.70
2023-02-14T11:10:31.025Z,8.80
2023-02-14T11:12:59.518Z,8.80
2023-02-14T11:15:30.421Z,8.80
2023-02-14T11:18:23.450Z,8.90
2023-02-14T11:21:03.003Z,8.90
2023-02-14T11:23:37.238Z,8.90
2023-02-14T11:26:07.025Z,8.90
2023-02-14T11:28:36.144Z,8.90
2023-02-14T11:31:04.953Z,8.80
2023-02-14T11:33:38.511Z,8.80
2023-02-14T11:36:11.476Z,8.90
2023-02-14T11:38:41.844Z,8.90
2023-02-14T11:41:11.640Z,8.90
2023-02-14T11:43:40.887Z,8.90
2023-02-14T11:46:15.614Z,8.90
2023-02-14T11:49:05.315Z,8.90
2023-02-14T11:51:35.236Z,9.00
2023-02-14T11:54:06.038Z,9.00
2023-02-14T11:56:48.847Z,9.00
2023-02-14T11:59:27.352Z,9.00
2023-02-14T12:01:56.054Z,9.00
2023-02-14T12:04:30.749Z,9.00
2023-02-14T12:07:28.959Z,9.00
2023-02-14T12:10:24.623Z,9.00
2023-02-14T12:12:56.503Z,9.00
2023-02-14T12:15:34.560Z,9.00
2023-02-14T12:18:33.309Z,9.00
2023-02-14T12:21:07.268Z,9.00
2023-02-14T12:23:40.498Z,9.00
2023-02-14T12:26:16.647Z,9.00
2023-02-14T12:28:48.833Z,9.00
2023-02-14T12:31:17.396Z,9.00
2023-02-14T12:33:47.549Z,9.00
2023-02-14T12:36:34.489Z,9.00
2023-02-14T12:39:08.581Z,9.00
2023-02-14T12:41:43.536Z,9.10
2023-02-14T12:44:15.694Z,9.10
2023-02-14T12:47:00.446Z,9.10
2023-02-14T12:49:52.433Z,9.20
2023-02-14T12:52:48.935Z,9.20
2023-02-14T12:55:44.043Z,9.20
2023-02-14T12:58:24.246Z,9.20
2023-02-14T13:01:00.442Z,9.20
2023-02-14T13:03:40.277Z,9.20
2023-02-14T13:06:12.145Z,9.20
2023-02-14T13:09:01.396Z,9.20
2023-02-14T13:11:37.673Z,9.20
2023-02-14T13:14:15.403Z,9.20
2023-02-14T13:16:48.308Z,9.20
2023-02-14T13:19:25.620Z,9.20
2023-02-14T13:21:53.891Z,9.10
2023-02-14T13:24:24.296Z,9.10
2023-02-14T13:26:55.395Z,9.10
2023-02-14T13:29:26.505Z,9.10
2023-02-14T13:31:58.100Z,9.00
2023-02-14T13:34:29.418Z,9.00
2023-02-14T13:36:59.037Z,9.00
2023-02-14T13:39:36.115Z,9.00
2023-02-14T13:42:07.266Z,9.00
2023-02-14T13:44:47.586Z,8.90
2023-02-14T13:47:20.153Z,8.90
2023-02-14T13:49:51.124Z,8.90
2023-02-14T13:52:42.425Z,8.90
2023-02-14T13:55:16.198Z,8.90
2023-02-14T13:57:44.547Z,8.90
2023-02-14T14:00:42.930Z,8.90
2023-02-14T14:03:15.761Z,8.90
2023-02-14T14:06:06.132Z,8.80
2023-02-14T14:08:46.068Z,8.80
2023-02-14T14:11:59.586Z,8.80
2023-02-14T14:14:42.118Z,8.80
2023-02-14T14:17:36.424Z,8.80
2023-02-14T14:20:25.997Z,8.80
2023-02-14T14:22:57.533Z,8.80
2023-02-14T14:25:37.362Z,8.70
2023-02-14T14:28:10.887Z,8.70
2023-02-14T14:30:39.207Z,8.70
2023-02-14T14:33:17.508Z,8.70
2023-02-14T14:35:54.137Z,8.70
2023-02-14T14:38:23.947Z,8.60
2023-02-14T14:40:52.206Z,8.60
2023-02-14T14:43:28.233Z,8.60
2023-02-14T14:45:57.250Z,8.60
2023-02-14T14:48:30.919Z,8.50
2023-02-14T14:50:59.424Z,8.50
2023-02-14T14:53:32.297Z,8.50
2023-02-14T14:56:00.985Z,8.50
2023-02-14T14:58:39.961Z,8.50
2023-02-14T15:01:13.431Z,8.50
2023-02-14T15:03:41.842Z,8.40
2023-02-14T15:06:17.530Z,8.40
2023-02-14T15:08:48.140Z,8.40
2023-02-14T15:11:41.347Z,8.30
2023-02-14T15:14:11.080Z,8.30
2023-02-14T15:16:42.804Z,8.30
2023-02-14T15:19:12.267Z,8.20
2023-02-14T15:21:44.534Z,8.20
2023-02-14T15:24:16.345Z,8.20
2023-02-14T15:26:45.745Z,8.10
2023-02-14T15:29:22.899Z,8.10
2023-02-14T15:31:51.346Z,8.10
2023-02-14T15:34:21.425Z,8.00
2023-02-14T15:36:52.182Z,8.00
2023-02-14T15:39:21.930Z,8.00
2023-02-14T15:41:50.955Z,7.90
2023-02-14T15:44:23.374Z,7.90
2023-02-14T15:46:55.821Z,7.90
2023-02-14T15:49:34.646Z,7.80
2023-02-14T15:52:04.845Z,7.80
2023-02-14T15:54:38.306Z,7.70
2023-02-14T15:57:07.749Z,7.70
2023-02-14T15:59:36.896Z,7.70
2023-02-14T16:02:26.426Z,7.70
2023-02-14T16:04:54.679Z,7.70
2023-02-14T16:07:27.146Z,7.70
2023-02-14T16:10:24.973Z,7.60
2023-02-14T16:12:59.171Z,7.60
2023-02-14T16:15:28.221Z,7.50
2023-02-14T16:17:56.505Z,7.50
2023-02-14T16:20:41.605Z,7.50
2023-02-14T16:23:27.244Z,7.40
2023-02-14T16:25:58.367Z,7.40
2023-02-14T16:28:30.311Z,7.40
2023-02-14T16:31:00.218Z,7.40
2023-02-14T16:33:31.803Z,7.30
2023-02-14T16:36:06.213Z,7.40
2023-02-14T16:38:36.445Z,7.30
2023-02-14T16:41:07.181Z,7.30
2023-02-14T16:43:35.488Z,7.30
2023-02-14T16:46:03.865Z,7.30
2023-02-14T16:48:32.174Z,7.30
2023-02-14T16:51:00.650Z,7.30
2023-02-14T16:53:29.242Z,7.20
2023-02-14T16:55:58.176Z,7.20
2023-02-14T16:58:31.183Z,7.10
2023-02-14T17:00:59.799Z,7.20
2023-02-14T17:03:28.336Z,7.20
2023-02-14T17:05:57.600Z,7.20
2023-02-14T17:08:25.858Z,7.20
2023-02-14T17:10:54.446Z,7.20
2023-02-14T17:13:24.721Z,7.20
2023-02-14T17:15:54.494Z,7.10
2023-02-14T17:18:22.995Z,7.20
2023-02-14T17:20:51.252Z,7.20
2023-02-14T17:23:20.264Z,7.10
2023-02-14T17:25:49.114Z,7.10
2023-02-14T17:28:17.411Z,7.10
2023-02-14T17:30:45.873Z,7.10
2023-02-14T17:33:15.664Z,7.10
2023-02-14T17:35:44.145Z,7.10
2023-02-14T17:38:12.408Z,7.00
2023-02-14T17:40:40.756Z,7.00
2023-02-14T17:43:09.081Z,7.10
2023-02-14T17:45:37.399Z,7.10
2023-02-14T17:48:05.796Z,7.00
2023-02-14T17:50:35.492Z,7.00
2023-02-14T17:53:03.834Z,7.00
2023-02-14T17:55:32.188Z,6.90
2023-02-14T17:58:00.523Z,6.90
2023-02-14T18:00:28.906Z,6.90
2023-02-14T18:02:57.278Z,6.90
2023-02-14T18:05:25.657Z,6.90
2023-02-14T18:07:55.318Z,6.90
2023-02-14T18:10:23.824Z,6.90
2023-02-14T18:12:52.129Z,6.90
2023-02-14T18:15:20.816Z,6.90
2023-02-14T18:17:50.912Z,6.90
2023-02-14T18:20:19.645Z,6.90
2023-02-14T18:22:47.907Z,6.90
2023-02-14T18:25:17.762Z,6.80
2023-02-14T18:27:46.017Z,6.80
2023-02-14T18:30:15.548Z,6.80
2023-02-14T18:32:44.507Z,6.70
2023-02-14T18:35:13.051Z,6.70
2023-02-14T18:37:41.956Z,6.70
2023-02-14T18:40:16.376Z,6.70
2023-02-14T18:42:46.092Z,6.60
2023-02-14T18:45:14.454Z,6.60
2023-02-14T18:47:42.724Z,6.70
2023-02-14T18:50:11.914Z,6.70
2023-02-14T18:52:40.202Z,6.70
2023-02-14T18:55:09.503Z,6.70
2023-02-14T18:57:38.197Z,6.70
2023-02-14T19:00:12.047Z,6.70
2023-02-14T19:02:40.342Z,6.80
2023-02-14T19:05:09.142Z,6.70
2023-02-14T19:07:37.483Z,6.80
2023-02-14T19:10:06.646Z,6.80
2023-02-14T19:12:35.036Z,6.80
2023-02-14T19:15:03.496Z,6.70
2023-02-14T19:17:33.939Z,6.80
2023-02-14T19:20:08.543Z,6.70
2023-02-14T19:22:39.406Z,6.70
2023-02-14T19:25:08.896Z,6.70
2023-02-14T19:27:37.257Z,6.70
2023-02-14T19:30:07.598Z,6.70
2023-02-14T19:32:37.345Z,6.70
2023-02-14T19:35:06.145Z,6.70
2023-02-14T19:37:34.447Z,6.70
2023-02-14T19:40:02.950Z,6.70
2023-02-14T19:42:31.562Z,6.70
2023-02-14T19:44:59.854Z,6.60
2023-02-14T19:47:45.656Z,6.60
2023-02-14T19:50:17.639Z,6.60
2023-02-14T19:52:45.926Z,6.60
2023-02-14T19:55:22.725Z,6.50
2023-02-14T19:57:51.024Z,6.50
2023-02-14T20:00:21.569Z,6.50
2023-02-14T20:02:49.931Z,6.50
2023-02-14T20:05:19.982Z,6.50
2023-02-14T20:07:52.104Z,6.50
2023-02-14T20:10:20.785Z,6.50
2023-02-14T20:12:49.508Z,6.50
2023-02-14T20:15:18.030Z,6.50
2023-02-14T20:17:47.035Z,6.50
2023-02-14T20:20:16.578Z,6.50
2023-02-14T20:22:46.296Z,6.50
2023-02-14T20:25:14.729Z,6.50
2023-02-14T20:27:43.139Z,6.40
2023-02-14T20:30:14.384Z,6.40
2023-02-14T20:32:42.821Z,6.40
2023-02-14T20:35:11.121Z,6.40
2023-02-14T20:37:39.401Z,6.40
2023-02-14T20:40:12.361Z,6.40
2023-02-14T20:42:40.629Z,6.40
2023-02-14T20:45:09.827Z,6.40
2023-02-14T20:47:38.206Z,6.50
2023-02-14T20:50:08.352Z,6.50
2023-02-14T20:52:37.644Z,6.40
2023-02-14T20:55:08.561Z,6.40
2023-02-14T20:57:36.912Z,6.40
2023-02-14T21:00:06.054Z,6.40
2023-02-14T21:02:34.473Z,6.40
2023-02-14T21:05:02.749Z,6.40
2023-02-14T21:07:31.121Z,6.40
2023-02-14T21:09:59.445Z,6.40
2023-02-14T21:12:29.113Z,6.30
2023-02-14T21:14:57.360Z,6.30
2023-02-14T21:17:25.709Z,6.30
2023-02-14T21:19:54.009Z,6.30
2023-02-14T21:22:22.359Z,6.30
2023-02-14T21:24:50.891Z,6.30
2023-02-14T21:27:19.159Z,6.30
2023-02-14T21:29:48.859Z,6.30
2023-02-14T21:32:17.278Z,6.30
2023-02-14T21:34:45.704Z,6.20
2023-02-14T21:37:13.981Z,6.20
2023-02-14T21:39:42.284Z,6.20
2023-02-14T21:42:11.855Z,6.20
2023-02-14T21:44:57.762Z,6.20
2023-02-14T21:47:27.443Z,6.20
2023-02-14T21:50:13.368Z,6.20
2023-02-14T21:52:41.774Z,6.10
2023-02-14T21:55:10.214Z,6.10
2023-02-14T21:57:38.775Z,6.10
2023-02-14T22:00:11.088Z,6.10
2023-02-14T22:02:41.067Z,6.00
2023-02-14T22:05:10.661Z,6.00
2023-02-14T22:07:39.208Z,6.00
2023-02-14T22:10:08.576Z,5.90
2023-02-14T22:12:36.875Z,5.90
2023-02-14T22:15:05.691Z,5.90
2023-02-14T22:17:34.183Z,5.80
2023-02-14T22:20:06.005Z,5.80
2023-02-14T22:22:34.552Z,5.80
2023-02-14T22:25:02.813Z,5.80
2023-02-14T22:27:31.178Z,5.80
2023-02-14T22:29:59.501Z,5.70
2023-02-14T22:32:27.731Z,5.70
2023-02-14T22:34:55.969Z,5.70
2023-02-14T22:37:25.785Z,5.70
2023-02-14T22:39:54.070Z,5.70
2023-02-14T22:42:22.352Z,5.60
2023-02-14T22:44:51.069Z,5.60
2023-02-14T22:47:19.318Z,5.60
2023-02-14T22:49:47.563Z,5.60
2023-02-14T22:52:15.873Z,5.60
2023-02-14T22:54:45.626Z,5.60
2023-02-14T22:57:13.944Z,5.60
2023-02-14T22:59:42.538Z,5.60
2023-02-14T23:02:11.112Z,5.60
2023-02-14T23:04:39.441Z,5.60
2023-02-14T23:07:07.677Z,5.60
2023-02-14T23:09:36.358Z,5.60
2023-02-14T23:12:27.052Z,5.60
2023-02-14T23:15:13.527Z,5.50
2023-02-14T23:17:59.114Z,5.40
2023-02-14T23:20:44.750Z,5.40
2023-02-14T23:23:13.081Z,5.20
2023-02-14T23:25:43.715Z,5.10
2023-02-14T23:28:13.436Z,5.00
2023-02-14T23:30:41.757Z,4.80
2023-02-14T23:33:10.056Z,4.70
2023-02-14T23:35:38.373Z,4.60
2023-02-14T23:38:06.734Z,4.60
2023-02-14T23:40:55.368Z,4.50
2023-02-14T23:43:25.609Z,4.50
2023-02-14T23:45:53.952Z,4.50
2023-02-14T23:48:22.287Z,4.40
2023-02-14T23:50:50.630Z,4.40
2023-02-14T23:53:18.920Z,4.30
2023-02-14T23:55:47.238Z,4.20
2023-02-14T23:58:15.577Z,4.20
